createdAt,value
2022-10-13T00:01:13.481Z,7.90
2022-10-13T00:03:42.211Z,7.80
2022-10-13T00:06:11.206Z,7.70
2022-10-13T00:08:38.378Z,7.70
2022-10-13T00:11:24.081Z,7.60
2022-10-13T00:14:00.659Z,7.50
2022-10-13T00:16:30.674Z,7.50
2022-10-13T00:18:57.940Z,7.50
2022-10-13T00:21:27.103Z,7.50
2022-10-13T00:23:55.672Z,7.60
2022-10-13T00:26:25.005Z,7.70
2022-10-13T00:28:53.103Z,7.70
2022-10-13T00:31:23.737Z,7.70
2022-10-13T00:33:52.919Z,7.80
2022-10-13T00:36:23.296Z,7.70
2022-10-13T00:38:51.027Z,7.60
2022-10-13T00:41:19.157Z,7.50
2022-10-13T00:44:00.032Z,7.50
2022-10-13T00:46:31.159Z,7.40
2022-10-13T00:49:04.023Z,7.30
2022-10-13T00:51:38.154Z,7.30
2022-10-13T00:54:07.298Z,7.20
2022-10-13T00:56:36.229Z,7.20
2022-10-13T00:59:06.296Z,7.20
2022-10-13T01:01:33.160Z,7.10
2022-10-13T01:04:00.247Z,7.10
2022-10-13T01:06:28.124Z,7.10
2022-10-13T01:08:55.978Z,7.00
2022-10-13T01:11:31.631Z,6.90
2022-10-13T01:14:17.556Z,6.90
2022-10-13T01:17:08.412Z,6.90
2022-10-13T01:20:01.084Z,6.90
2022-10-13T01:22:37.599Z,6.80
2022-10-13T01:25:16.216Z,6.80
2022-10-13T01:28:02.060Z,6.80
2022-10-13T01:30:35.132Z,6.70
2022-10-13T01:33:40.206Z,6.70
2022-10-13T01:36:15.864Z,6.60
2022-10-13T01:38:54.031Z,6.60
2022-10-13T01:41:42.084Z,6.60
2022-10-13T01:44:16.357Z,6.60
2022-10-13T01:46:54.648Z,6.50
2022-10-13T01:49:27.080Z,6.50
2022-10-13T01:51:56.291Z,6.40
2022-10-13T01:54:23.546Z,6.40
2022-10-13T01:56:57.124Z,6.40
2022-10-13T01:59:27.331Z,6.30
2022-10-13T02:02:19.113Z,6.30
2022-10-13T02:04:56.142Z,6.30
2022-10-13T02:07:43.209Z,6.30
2022-10-13T02:10:33.020Z,6.30
2022-10-13T02:13:06.071Z,6.30
2022-10-13T02:15:42.496Z,6.30
2022-10-13T02:18:14.002Z,6.30
2022-10-13T02:20:42.342Z,6.40
2022-10-13T02:23:12.639Z,6.30
2022-10-13T02:25:47.477Z,6.30
2022-10-13T02:28:16.087Z,6.30
2022-10-13T02:30:45.432Z,6.30
2022-10-13T02:33:13.588Z,6.30
2022-10-13T02:35:40.666Z,6.30
2022-10-13T02:38:07.724Z,6.40
2022-10-13T02:40:35.196Z,6.40
2022-10-13T02:43:04.399Z,6.50
2022-10-13T02:45:31.300Z,6.60
2022-10-13T02:47:58.280Z,6.70
2022-10-13T02:50:25.309Z,6.80
2022-10-13T02:52:54.350Z,6.80
2022-10-13T02:55:22.159Z,6.80
2022-10-13T02:57:56.321Z,6.70
2022-10-13T03:00:23.635Z,6.70
2022-10-13T03:02:51.571Z,6.70
2022-10-13T03:05:19.902Z,6.80
2022-10-13T03:07:46.738Z,6.90
2022-10-13T03:10:14.605Z,7.00
2022-10-13T03:12:41.475Z,7.10
2022-10-13T03:15:09.225Z,7.20
2022-10-13T03:17:36.025Z,7.30
2022-10-13T03:20:03.303Z,7.40
2022-10-13T03:22:32.445Z,7.40
2022-10-13T03:24:59.342Z,7.50
2022-10-13T03:27:26.181Z,7.60
2022-10-13T03:29:53.026Z,7.70
2022-10-13T03:32:19.986Z,7.70
2022-10-13T03:34:47.430Z,7.80
2022-10-13T03:37:15.380Z,7.90
2022-10-13T03:39:43.308Z,8.00
2022-10-13T03:42:10.977Z,8.10
2022-10-13T03:44:39.257Z,8.20
2022-10-13T03:47:06.954Z,8.30
2022-10-13T03:49:33.827Z,8.40
2022-10-13T03:52:00.643Z,8.40
2022-10-13T03:54:28.489Z,8.50
2022-10-13T03:56:57.394Z,8.50
2022-10-13T03:59:24.311Z,8.60
2022-10-13T04:01:52.287Z,8.60
2022-10-13T04:04:20.135Z,8.70
2022-10-13T04:06:48.819Z,8.70
2022-10-13T04:09:15.640Z,8.70
2022-10-13T04:11:42.533Z,8.70
2022-10-13T04:14:09.436Z,8.70
2022-10-13T04:16:36.278Z,8.70
2022-10-13T04:19:05.693Z,8.70
2022-10-13T04:21:33.964Z,8.70
2022-10-13T04:24:02.902Z,8.70
2022-10-13T04:26:32.477Z,8.70
2022-10-13T04:29:08.266Z,8.80
2022-10-13T04:31:35.505Z,8.80
2022-10-13T04:34:02.359Z,8.80
2022-10-13T04:36:30.510Z,8.80
2022-10-13T04:38:58.764Z,8.80
2022-10-13T04:41:26.818Z,8.80
2022-10-13T04:43:54.794Z,8.80
2022-10-13T04:46:25.588Z,8.90
2022-10-13T04:48:57.252Z,8.90
2022-10-13T04:51:29.435Z,8.90
2022-10-13T04:53:58.130Z,9.00
2022-10-13T04:56:25.381Z,9.00
2022-10-13T04:58:52.295Z,9.00
2022-10-13T05:01:22.509Z,9.00
2022-10-13T05:03:54.435Z,9.00
2022-10-13T05:06:24.113Z,9.10
2022-10-13T05:08:57.361Z,9.10
2022-10-13T05:11:26.566Z,9.10
2022-10-13T05:13:53.633Z,9.10
2022-10-13T05:16:22.312Z,9.10
2022-10-13T05:18:51.722Z,9.10
2022-10-13T05:21:25.188Z,9.20
2022-10-13T05:23:54.420Z,9.20
2022-10-13T05:26:28.021Z,9.20
2022-10-13T05:29:02.198Z,9.20
2022-10-13T05:31:34.473Z,9.20
2022-10-13T05:34:01.543Z,9.30
2022-10-13T05:36:34.731Z,9.30
2022-10-13T05:39:04.421Z,9.30
2022-10-13T05:41:31.467Z,9.30
2022-10-13T05:44:09.229Z,9.40
2022-10-13T05:46:44.385Z,9.40
2022-10-13T05:49:13.314Z,9.40
2022-10-13T05:51:44.163Z,9.50
2022-10-13T05:54:31.057Z,9.50
2022-10-13T05:57:04.018Z,9.50
2022-10-13T05:59:35.399Z,9.50
2022-10-13T06:02:04.307Z,9.60
2022-10-13T06:04:37.521Z,9.60
2022-10-13T06:07:04.762Z,9.60
2022-10-13T06:09:35.136Z,9.60
2022-10-13T06:12:02.155Z,9.60
2022-10-13T06:14:29.124Z,9.60
2022-10-13T06:16:56.377Z,9.60
2022-10-13T06:19:23.384Z,9.60
2022-10-13T06:21:50.552Z,9.60
2022-10-13T06:24:17.931Z,9.60
2022-10-13T06:26:44.867Z,9.60
2022-10-13T06:29:12.138Z,9.60
2022-10-13T06:31:39.196Z,9.70
2022-10-13T06:34:07.756Z,9.70
2022-10-13T06:36:36.491Z,9.70
2022-10-13T06:39:04.564Z,9.70
2022-10-13T06:41:31.500Z,9.70
2022-10-13T06:43:58.382Z,9.70
2022-10-13T06:46:28.079Z,9.70
2022-10-13T06:48:55.064Z,9.70
2022-10-13T06:51:23.373Z,9.70
2022-10-13T06:53:51.338Z,9.80
2022-10-13T06:56:24.134Z,9.80
2022-10-13T06:58:51.042Z,9.80
2022-10-13T07:01:19.081Z,9.90
2022-10-13T07:03:51.827Z,10.00
2022-10-13T07:06:21.303Z,10.00
2022-10-13T07:08:51.065Z,10.10
2022-10-13T07:11:19.650Z,10.10
2022-10-13T07:13:51.397Z,10.20
2022-10-13T07:16:20.579Z,10.20
2022-10-13T07:18:48.543Z,10.30
2022-10-13T07:21:15.508Z,10.40
2022-10-13T07:23:42.880Z,10.40
2022-10-13T07:26:16.072Z,10.50
2022-10-13T07:28:44.475Z,10.50
2022-10-13T07:31:14.851Z,10.60
2022-10-13T07:33:44.242Z,10.70
2022-10-13T07:36:12.333Z,10.80
2022-10-13T07:38:39.642Z,10.80
2022-10-13T07:41:08.326Z,10.80
2022-10-13T07:43:35.419Z,10.90
2022-10-13T07:46:06.151Z,10.90
2022-10-13T07:48:34.411Z,10.90
2022-10-13T07:51:08.546Z,11.00
2022-10-13T07:53:36.803Z,11.00
2022-10-13T07:56:05.830Z,11.10
2022-10-13T07:58:33.561Z,11.20
2022-10-13T08:01:01.892Z,11.40
2022-10-13T08:03:29.671Z,11.60
2022-10-13T08:05:59.572Z,11.80
2022-10-13T08:08:27.423Z,11.90
2022-10-13T08:10:55.059Z,12.00
2022-10-13T08:13:23.745Z,12.10
2022-10-13T08:15:50.655Z,12.20
2022-10-13T08:18:17.701Z,12.30
2022-10-13T08:20:46.356Z,12.50
2022-10-13T08:23:14.301Z,12.70
2022-10-13T08:25:48.738Z,12.80
2022-10-13T08:28:20.444Z,12.90
2022-10-13T08:30:48.762Z,12.90
2022-10-13T08:33:15.722Z,12.90
2022-10-13T08:35:42.860Z,13.00
2022-10-13T08:38:09.805Z,13.00
2022-10-13T08:40:38.365Z,13.10
2022-10-13T08:43:07.506Z,13.20
2022-10-13T08:45:41.437Z,13.30
2022-10-13T08:48:15.305Z,13.40
2022-10-13T08:50:46.797Z,13.70
2022-10-13T08:53:31.654Z,14.10
2022-10-13T08:56:05.182Z,14.50
2022-10-13T08:58:34.918Z,15.10
2022-10-13T09:01:10.980Z,15.40
2022-10-13T09:04:03.963Z,15.60
2022-10-13T09:06:37.973Z,15.50
2022-10-13T09:09:15.622Z,15.70
2022-10-13T09:11:46.569Z,15.70
2022-10-13T09:14:19.962Z,15.60
2022-10-13T09:16:50.315Z,15.50
2022-10-13T09:19:21.008Z,15.40
2022-10-13T09:21:49.561Z,15.30
2022-10-13T09:24:18.734Z,15.30
2022-10-13T09:26:48.096Z,15.20
2022-10-13T09:29:26.051Z,15.20
2022-10-13T09:32:13.617Z,15.20
2022-10-13T09:34:40.583Z,15.10
2022-10-13T09:37:19.034Z,15.10
2022-10-13T09:39:46.302Z,15.00
2022-10-13T09:42:30.145Z,15.00
2022-10-13T09:45:20.992Z,14.90
2022-10-13T09:47:57.691Z,14.90
2022-10-13T09:50:29.909Z,15.10
2022-10-13T09:53:28.733Z,15.20
2022-10-13T09:56:17.095Z,15.40
2022-10-13T09:59:28.689Z,15.60
2022-10-13T10:01:57.790Z,15.80
2022-10-13T10:04:31.746Z,15.90
2022-10-13T10:07:00.955Z,15.90
2022-10-13T10:09:39.420Z,15.90
2022-10-13T10:12:15.616Z,16.10
2022-10-13T10:14:42.668Z,16.40
2022-10-13T10:17:09.632Z,16.90
2022-10-13T10:19:56.265Z,17.50
2022-10-13T10:22:41.873Z,17.80
2022-10-13T10:25:48.469Z,17.90
2022-10-13T10:28:34.103Z,17.80
2022-10-13T10:31:13.627Z,17.40
2022-10-13T10:34:00.637Z,17.20
2022-10-13T10:36:59.421Z,17.10
2022-10-13T10:39:44.437Z,17.10
2022-10-13T10:42:52.185Z,17.10
2022-10-13T10:45:26.610Z,17.00
2022-10-13T10:48:01.543Z,17.10
2022-10-13T10:50:31.441Z,17.20
2022-10-13T10:53:13.156Z,17.20
2022-10-13T10:56:03.167Z,17.30
2022-10-13T10:59:00.897Z,17.40
2022-10-13T11:01:52.226Z,17.30
2022-10-13T11:04:48.480Z,17.30
2022-10-13T11:07:24.641Z,17.20
2022-10-13T11:09:51.540Z,17.10
2022-10-13T11:12:25.268Z,17.10
2022-10-13T11:15:09.920Z,17.00
2022-10-13T11:17:38.540Z,16.90
2022-10-13T11:20:21.424Z,16.70
2022-10-13T11:23:03.735Z,16.60
2022-10-13T11:25:42.838Z,16.60
2022-10-13T11:28:42.594Z,16.70
2022-10-13T11:31:15.534Z,16.70
2022-10-13T11:33:45.795Z,16.70
2022-10-13T11:36:49.855Z,16.70
2022-10-13T11:39:27.599Z,16.60
2022-10-13T11:42:36.132Z,16.60
2022-10-13T11:45:11.648Z,16.60
2022-10-13T11:48:25.693Z,16.70
2022-10-13T11:51:12.630Z,16.80
2022-10-13T11:54:10.867Z,16.70
2022-10-13T11:56:55.309Z,16.70
2022-10-13T11:59:37.604Z,16.60
2022-10-13T12:02:10.295Z,16.60
2022-10-13T12:04:41.548Z,16.70
2022-10-13T12:07:15.814Z,16.70
2022-10-13T12:09:57.232Z,16.60
2022-10-13T12:12:25.434Z,16.50
2022-10-13T12:14:55.563Z,16.50
2022-10-13T12:17:26.597Z,16.50
2022-10-13T12:20:15.338Z,16.40
2022-10-13T12:22:51.422Z,16.40
2022-10-13T12:25:21.277Z,16.50
2022-10-13T12:27:53.932Z,16.50
2022-10-13T12:30:26.762Z,16.50
2022-10-13T12:32:58.156Z,16.50
2022-10-13T12:35:30.455Z,16.60
2022-10-13T12:38:01.277Z,16.70
2022-10-13T12:40:29.430Z,16.70
2022-10-13T12:42:56.483Z,16.70
2022-10-13T12:45:31.495Z,16.80
2022-10-13T12:47:58.527Z,16.90
2022-10-13T12:50:29.602Z,16.90
2022-10-13T12:53:17.999Z,16.80
2022-10-13T12:55:50.689Z,16.80
2022-10-13T12:58:24.944Z,16.80
2022-10-13T13:01:06.104Z,16.80
2022-10-13T13:03:37.164Z,16.80
2022-10-13T13:06:13.523Z,16.80
2022-10-13T13:08:42.060Z,16.80
2022-10-13T13:11:23.951Z,16.80
2022-10-13T13:14:12.366Z,16.80
2022-10-13T13:16:39.351Z,16.80
2022-10-13T13:19:06.263Z,17.00
2022-10-13T13:21:34.099Z,17.20
2022-10-13T13:24:04.258Z,17.50
2022-10-13T13:26:38.303Z,17.60
2022-10-13T13:29:08.846Z,17.90
2022-10-13T13:31:35.723Z,18.10
2022-10-13T13:34:03.612Z,18.20
2022-10-13T13:36:31.057Z,18.20
2022-10-13T13:38:57.910Z,18.20
2022-10-13T13:41:27.888Z,18.10
2022-10-13T13:43:54.775Z,18.10
2022-10-13T13:46:24.731Z,18.10
2022-10-13T13:48:51.942Z,18.10
2022-10-13T13:51:19.283Z,18.10
2022-10-13T13:53:46.479Z,18.10
2022-10-13T13:56:14.918Z,18.10
2022-10-13T13:58:42.113Z,18.10
2022-10-13T14:01:11.015Z,18.00
2022-10-13T14:03:38.357Z,18.00
2022-10-13T14:06:07.694Z,17.90
2022-10-13T14:08:42.195Z,17.90
2022-10-13T14:11:10.204Z,18.00
2022-10-13T14:13:49.972Z,18.00
2022-10-13T14:16:26.270Z,18.10
2022-10-13T14:19:02.491Z,18.20
2022-10-13T14:21:29.690Z,18.30
2022-10-13T14:23:57.035Z,18.40
2022-10-13T14:26:24.958Z,18.40
2022-10-13T14:28:52.004Z,18.60
2022-10-13T14:31:19.036Z,18.60
2022-10-13T14:33:49.744Z,18.60
2022-10-13T14:36:20.377Z,18.40
2022-10-13T14:38:47.323Z,18.30
2022-10-13T14:41:17.031Z,18.20
2022-10-13T14:43:46.220Z,18.00
2022-10-13T14:46:13.586Z,17.80
2022-10-13T14:48:41.548Z,17.60
2022-10-13T14:51:10.926Z,17.50
2022-10-13T14:53:40.732Z,17.40
2022-10-13T14:56:30.074Z,17.40
2022-10-13T14:59:00.299Z,17.40
2022-10-13T15:01:34.097Z,17.30
2022-10-13T15:04:01.790Z,17.30
2022-10-13T15:06:31.777Z,17.40
2022-10-13T15:08:59.029Z,17.30
2022-10-13T15:11:26.894Z,17.30
2022-10-13T15:13:54.137Z,17.20
2022-10-13T15:16:33.618Z,17.10
2022-10-13T15:19:01.631Z,17.10
2022-10-13T15:21:29.602Z,17.00
2022-10-13T15:23:56.981Z,16.90
2022-10-13T15:26:24.536Z,16.80
2022-10-13T15:28:53.124Z,16.80
2022-10-13T15:31:22.608Z,16.80
2022-10-13T15:33:52.661Z,16.80
2022-10-13T15:36:21.847Z,16.80
2022-10-13T15:38:48.746Z,16.70
2022-10-13T15:41:16.213Z,16.60
2022-10-13T15:43:45.101Z,16.50
2022-10-13T15:46:21.104Z,16.40
2022-10-13T15:48:49.719Z,16.30
2022-10-13T15:51:19.607Z,16.20
2022-10-13T15:53:47.424Z,16.10
2022-10-13T15:56:14.828Z,16.00
2022-10-13T15:58:42.342Z,15.90
2022-10-13T16:01:10.604Z,15.90
2022-10-13T16:03:39.024Z,15.70
2022-10-13T16:06:10.375Z,15.70
2022-10-13T16:08:39.751Z,15.60
2022-10-13T16:11:16.262Z,15.50
2022-10-13T16:13:49.874Z,15.50
2022-10-13T16:16:17.584Z,15.40
2022-10-13T16:18:45.993Z,15.30
2022-10-13T16:21:22.474Z,15.20
2022-10-13T16:23:50.855Z,15.20
2022-10-13T16:26:18.529Z,15.00
2022-10-13T16:28:46.984Z,15.00
2022-10-13T16:31:16.356Z,14.90
2022-10-13T16:33:45.840Z,14.90
2022-10-13T16:36:18.711Z,14.80
2022-10-13T16:38:48.119Z,14.70
2022-10-13T16:41:17.263Z,14.70
2022-10-13T16:43:45.965Z,14.60
2022-10-13T16:46:16.412Z,14.60
2022-10-13T16:48:46.218Z,14.50
2022-10-13T16:51:20.121Z,14.40
2022-10-13T16:53:50.453Z,14.40
2022-10-13T16:56:22.126Z,14.30
2022-10-13T16:59:04.511Z,14.30
2022-10-13T17:01:34.881Z,14.30
2022-10-13T17:04:04.090Z,14.20
2022-10-13T17:06:31.211Z,14.20
2022-10-13T17:08:59.665Z,14.20
2022-10-13T17:11:29.994Z,14.10
2022-10-13T17:13:58.394Z,14.10
2022-10-13T17:16:31.392Z,14.00
2022-10-13T17:18:58.384Z,13.90
2022-10-13T17:21:32.972Z,13.90
2022-10-13T17:23:59.902Z,13.80
2022-10-13T17:26:27.872Z,13.70
2022-10-13T17:28:55.095Z,13.60
2022-10-13T17:31:23.788Z,13.60
2022-10-13T17:33:52.073Z,13.50
2022-10-13T17:36:27.385Z,13.50
2022-10-13T17:38:56.325Z,13.50
2022-10-13T17:41:24.362Z,13.40
2022-10-13T17:43:52.295Z,13.30
2022-10-13T17:46:41.067Z,13.30
2022-10-13T17:49:11.837Z,13.20
2022-10-13T17:51:40.620Z,13.20
2022-10-13T17:54:12.972Z,13.10
2022-10-13T17:56:42.598Z,13.10
2022-10-13T17:59:10.553Z,13.00
2022-10-13T18:01:37.978Z,12.90
2022-10-13T18:04:08.592Z,12.90
2022-10-13T18:06:40.469Z,12.90
2022-10-13T18:09:13.182Z,12.90
2022-10-13T18:11:45.658Z,12.80
2022-10-13T18:14:17.129Z,12.80
2022-10-13T18:16:44.896Z,12.80
2022-10-13T18:19:12.973Z,12.80
2022-10-13T18:21:40.082Z,12.80
2022-10-13T18:24:07.512Z,12.80
2022-10-13T18:26:37.368Z,12.70
2022-10-13T18:29:07.572Z,12.70
2022-10-13T18:31:36.840Z,12.70
2022-10-13T18:34:06.529Z,12.70
2022-10-13T18:36:39.918Z,12.60
2022-10-13T18:39:21.026Z,12.60
2022-10-13T18:41:48.945Z,12.60
2022-10-13T18:44:17.343Z,12.60
2022-10-13T18:46:45.118Z,12.50
2022-10-13T18:49:14.969Z,12.50
2022-10-13T18:51:43.765Z,12.50
2022-10-13T18:54:11.085Z,12.40
2022-10-13T18:56:38.719Z,12.40
2022-10-13T18:59:06.665Z,12.40
2022-10-13T19:01:35.775Z,12.40
2022-10-13T19:04:03.179Z,12.40
2022-10-13T19:06:32.670Z,12.30
2022-10-13T19:09:01.982Z,12.30
2022-10-13T19:11:31.029Z,12.30
2022-10-13T19:13:58.821Z,12.30
2022-10-13T19:16:29.256Z,12.30
2022-10-13T19:18:59.205Z,12.20
2022-10-13T19:21:26.849Z,12.20
2022-10-13T19:23:59.815Z,12.20
2022-10-13T19:26:29.921Z,12.10
2022-10-13T19:29:02.262Z,12.10
2022-10-13T19:31:32.166Z,12.10
2022-10-13T19:34:01.833Z,12.00
2022-10-13T19:36:39.490Z,12.00
2022-10-13T19:39:22.818Z,12.00
2022-10-13T19:41:53.069Z,11.90
2022-10-13T19:44:21.434Z,11.90
2022-10-13T19:46:50.262Z,11.90
2022-10-13T19:49:19.163Z,11.90
2022-10-13T19:51:47.889Z,11.90
2022-10-13T19:54:17.691Z,11.90
2022-10-13T19:56:47.590Z,11.90
2022-10-13T19:59:16.002Z,11.90
2022-10-13T20:01:43.297Z,11.80
2022-10-13T20:04:15.569Z,11.80
2022-10-13T20:06:44.097Z,11.80
2022-10-13T20:09:10.993Z,11.80
2022-10-13T20:11:37.968Z,11.80
2022-10-13T20:14:14.224Z,11.80
2022-10-13T20:16:41.903Z,11.90
2022-10-13T20:19:12.739Z,11.90
2022-10-13T20:21:42.902Z,11.90
2022-10-13T20:24:11.890Z,11.90
2022-10-13T20:26:40.863Z,11.90
2022-10-13T20:29:09.268Z,11.90
2022-10-13T20:31:44.277Z,11.90
2022-10-13T20:34:11.465Z,12.00
2022-10-13T20:36:39.530Z,12.00
2022-10-13T20:39:09.085Z,12.00
2022-10-13T20:41:37.268Z,12.00
2022-10-13T20:44:04.321Z,12.00
2022-10-13T20:46:33.348Z,12.00
2022-10-13T20:49:15.550Z,12.00
2022-10-13T20:51:43.180Z,12.00
2022-10-13T20:54:13.768Z,12.00
2022-10-13T20:56:40.776Z,12.00
2022-10-13T20:59:11.218Z,12.00
2022-10-13T21:01:38.506Z,12.00
2022-10-13T21:04:06.792Z,12.00
2022-10-13T21:06:34.289Z,12.00
2022-10-13T21:09:01.778Z,12.00
2022-10-13T21:11:28.800Z,12.00
2022-10-13T21:13:55.730Z,12.00
2022-10-13T21:16:28.094Z,12.00
2022-10-13T21:18:56.820Z,12.10
2022-10-13T21:21:26.936Z,12.10
2022-10-13T21:23:56.017Z,12.10
2022-10-13T21:26:25.822Z,12.10
2022-10-13T21:28:52.999Z,12.10
2022-10-13T21:31:21.709Z,12.00
2022-10-13T21:33:49.744Z,12.00
2022-10-13T21:36:21.483Z,12.00
2022-10-13T21:38:51.516Z,12.00
2022-10-13T21:41:19.590Z,12.00
2022-10-13T21:43:46.766Z,12.00
2022-10-13T21:46:26.645Z,12.00
2022-10-13T21:48:55.622Z,12.00
2022-10-13T21:51:26.605Z,12.00
2022-10-13T21:53:55.900Z,12.00
2022-10-13T21:56:23.719Z,12.00
2022-10-13T21:58:50.816Z,12.00
2022-10-13T22:01:18.976Z,12.00
2022-10-13T22:03:49.544Z,11.90
2022-10-13T22:06:20.078Z,11.90
2022-10-13T22:08:50.049Z,11.90
2022-10-13T22:11:26.006Z,11.90
2022-10-13T22:13:53.035Z,11.90
2022-10-13T22:16:24.356Z,11.90
2022-10-13T22:18:53.053Z,11.90
2022-10-13T22:21:25.202Z,11.90
2022-10-13T22:23:55.759Z,11.90
2022-10-13T22:26:23.816Z,12.00
2022-10-13T22:28:51.784Z,12.00
2022-10-13T22:31:19.110Z,12.00
2022-10-13T22:33:46.655Z,11.90
2022-10-13T22:36:17.130Z,11.90
2022-10-13T22:38:45.910Z,11.90
2022-10-13T22:41:14.742Z,11.90
2022-10-13T22:43:46.732Z,11.90
2022-10-13T22:46:19.166Z,11.90
2022-10-13T22:48:46.158Z,11.90
2022-10-13T22:51:18.130Z,11.80
2022-10-13T22:53:45.275Z,11.80
2022-10-13T22:56:16.577Z,11.80
2022-10-13T22:58:58.283Z,11.80
2022-10-13T23:01:26.227Z,11.80
2022-10-13T23:04:18.466Z,11.70
2022-10-13T23:06:45.375Z,11.70
2022-10-13T23:09:13.954Z,11.70
2022-10-13T23:11:59.818Z,11.70
2022-10-13T23:14:33.567Z,11.70
2022-10-13T23:17:25.454Z,11.70
2022-10-13T23:19:54.159Z,11.70
2022-10-13T23:22:26.569Z,11.70
2022-10-13T23:24:57.854Z,11.70
2022-10-13T23:27:24.794Z,11.70
2022-10-13T23:29:51.883Z,11.70
2022-10-13T23:32:22.771Z,11.60
2022-10-13T23:34:53.634Z,11.60
2022-10-13T23:37:22.600Z,11.60
2022-10-13T23:39:49.746Z,11.60
2022-10-13T23:42:22.950Z,11.60
2022-10-13T23:44:49.937Z,11.60
2022-10-13T23:47:16.884Z,11.50
2022-10-13T23:49:43.908Z,11.50
2022-10-13T23:52:11.250Z,11.50
2022-10-13T23:54:39.149Z,11.50
2022-10-13T23:57:06.164Z,11.40
2022-10-13T23:59:38.945Z,11.50
